createdAt,value
2023-05-21T00:01:25.627Z,9.82
2023-05-21T00:03:52.693Z,9.32
2023-05-21T00:06:20.792Z,10.07
2023-05-21T00:08:47.313Z,10.30
2023-05-21T00:11:13.823Z,9.90
2023-05-21T00:13:40.317Z,9.95
2023-05-21T00:16:07.705Z,11.50
2023-05-21T00:18:34.332Z,10.73
2023-05-21T00:21:01.763Z,11.05
2023-05-21T00:23:32.487Z,9.32
2023-05-21T00:25:59.983Z,9.70
2023-05-21T00:28:26.687Z,9.13
2023-05-21T00:30:53.133Z,10.38
2023-05-21T00:33:21.769Z,9.90
2023-05-21T00:35:48.297Z,9.15
2023-05-21T00:38:17.685Z,9.43
2023-05-21T00:40:44.706Z,11.73
2023-05-21T00:43:11.280Z,11.68
2023-05-21T00:45:38.489Z,9.57
2023-05-21T00:48:06.428Z,9.63
2023-05-21T00:50:33.184Z,9.82
2023-05-21T00:52:59.831Z,9.82
2023-05-21T00:55:26.620Z,9.60
2023-05-21T00:57:53.663Z,9.55
2023-05-21T01:00:21.217Z,11.07
2023-05-21T01:02:47.930Z,10.25
2023-05-21T01:05:15.541Z,10.82
2023-05-21T01:07:43.355Z,9.55
2023-05-21T01:10:11.420Z,9.07
2023-05-21T01:12:40.482Z,9.88
2023-05-21T01:15:07.763Z,9.50
2023-05-21T01:17:35.549Z,9.63
2023-05-21T01:20:10.004Z,9.57
2023-05-21T01:22:41.806Z,10.07
2023-05-21T01:25:08.805Z,9.63
2023-05-21T01:27:35.846Z,10.13
2023-05-21T01:30:02.558Z,11.65
2023-05-21T01:32:40.652Z,10.02
2023-05-21T01:35:14.480Z,9.27
2023-05-21T01:38:02.893Z,10.45
2023-05-21T01:40:49.929Z,9.85
2023-05-21T01:43:18.340Z,11.82
2023-05-21T01:45:47.316Z,10.75
2023-05-21T01:48:14.821Z,11.63
2023-05-21T01:50:44.714Z,11.30
2023-05-21T01:53:11.226Z,10.73
2023-05-21T01:55:41.779Z,11.75
2023-05-21T01:58:09.135Z,11.15
2023-05-21T02:00:35.948Z,9.57
2023-05-21T02:05:29.681Z,11.10
2023-05-21T02:07:56.931Z,10.48
2023-05-21T02:10:23.442Z,9.07
2023-05-21T02:12:50.102Z,9.98
2023-05-21T02:15:19.780Z,9.68
2023-05-21T02:17:46.926Z,9.30
2023-05-21T02:20:14.452Z,10.52
2023-05-21T02:22:43.123Z,11.48
2023-05-21T02:25:10.674Z,8.32
2023-05-21T02:27:38.530Z,10.60
2023-05-21T02:30:07.813Z,10.23
2023-05-21T02:32:35.492Z,10.90
2023-05-21T02:35:03.799Z,13.02
2023-05-21T02:37:33.789Z,10.13
2023-05-21T02:40:01.038Z,10.48
2023-05-21T02:42:27.826Z,11.30
2023-05-21T02:47:23.534Z,9.93
2023-05-21T02:49:51.458Z,10.88
2023-05-21T02:52:18.969Z,9.25
2023-05-21T02:54:46.817Z,8.18
2023-05-21T02:57:14.049Z,12.50
2023-05-21T02:59:40.611Z,11.25
2023-05-21T03:02:07.585Z,11.20
2023-05-21T03:04:38.956Z,9.93
2023-05-21T03:07:06.117Z,10.88
2023-05-21T03:09:32.710Z,10.15
2023-05-21T03:11:59.612Z,12.30
2023-05-21T03:14:26.093Z,11.20
2023-05-21T03:16:52.808Z,10.40
2023-05-21T03:21:48.971Z,9.10
2023-05-21T03:24:15.428Z,9.98
2023-05-21T03:26:41.992Z,11.00
2023-05-21T03:29:08.508Z,11.70
2023-05-21T03:31:35.078Z,11.32
2023-05-21T03:34:01.770Z,14.18
2023-05-21T03:38:55.041Z,10.85
2023-05-21T03:41:22.000Z,13.15
2023-05-21T03:43:48.503Z,11.98
2023-05-21T03:46:15.090Z,12.52
2023-05-21T03:48:41.841Z,12.75
2023-05-21T03:51:09.483Z,11.07
2023-05-21T03:53:36.589Z,13.85
2023-05-21T03:56:03.348Z,14.82
2023-05-21T03:58:30.537Z,16.77
2023-05-21T04:03:23.798Z,15.20
2023-05-21T04:05:50.755Z,12.10
2023-05-21T04:08:17.219Z,13.00
2023-05-21T04:10:43.888Z,10.73
2023-05-21T04:13:10.496Z,11.35
2023-05-21T04:15:38.678Z,10.90
2023-05-21T04:18:07.152Z,10.70
2023-05-21T04:20:33.749Z,10.48
2023-05-21T04:23:01.087Z,11.88
2023-05-21T04:25:27.675Z,10.18
2023-05-21T04:27:55.657Z,13.65
2023-05-21T04:30:22.104Z,13.13
2023-05-21T04:35:15.921Z,12.32
2023-05-21T04:37:42.729Z,12.05
2023-05-21T04:40:09.923Z,15.43
2023-05-21T04:42:36.954Z,11.85
2023-05-21T04:45:03.706Z,14.20
2023-05-21T04:47:30.594Z,13.55
2023-05-21T04:49:57.226Z,10.70
2023-05-21T04:52:24.969Z,15.20
2023-05-21T04:54:51.803Z,13.30
2023-05-21T04:59:44.870Z,17.00
2023-05-21T05:02:11.497Z,14.32
2023-05-21T05:04:38.136Z,15.10
2023-05-21T05:07:04.990Z,12.52
2023-05-21T05:09:31.663Z,13.88
2023-05-21T05:11:58.220Z,14.93
2023-05-21T05:14:24.659Z,13.68
2023-05-21T05:16:51.439Z,15.50
2023-05-21T05:21:44.658Z,14.85
2023-05-21T05:24:11.285Z,15.13
2023-05-21T05:26:37.788Z,13.65
2023-05-21T05:29:04.331Z,15.40
2023-05-21T05:31:31.090Z,14.20
2023-05-21T05:33:58.338Z,15.68
2023-05-21T05:36:24.964Z,14.98
2023-05-21T05:38:51.532Z,13.80
2023-05-21T05:41:18.192Z,14.77
2023-05-21T05:43:44.958Z,16.65
2023-05-21T05:46:11.423Z,13.10
2023-05-21T05:48:38.026Z,15.38
2023-05-21T05:51:05.158Z,14.88
2023-05-21T05:53:32.370Z,15.88
2023-05-21T05:55:59.745Z,14.25
2023-05-21T05:58:26.584Z,14.55
2023-05-21T06:03:20.123Z,13.30
2023-05-21T06:05:47.108Z,12.63
2023-05-21T06:08:14.027Z,14.18
2023-05-21T06:10:40.751Z,15.13
2023-05-21T06:13:07.243Z,14.50
2023-05-21T06:15:33.912Z,15.07
2023-05-21T06:18:01.182Z,16.20
2023-05-21T06:20:29.847Z,15.98
2023-05-21T06:22:56.492Z,14.23
2023-05-21T06:25:23.099Z,15.15
2023-05-21T06:27:49.587Z,15.65
2023-05-21T06:30:16.020Z,13.38
2023-05-21T06:32:43.472Z,13.05
2023-05-21T06:35:10.198Z,15.93
2023-05-21T06:37:36.875Z,12.20
2023-05-21T06:42:31.827Z,14.88
2023-05-21T06:44:58.255Z,13.43
2023-05-21T06:47:25.012Z,13.45
2023-05-21T06:52:18.734Z,12.32
2023-05-21T06:54:45.904Z,12.93
2023-05-21T06:57:14.707Z,11.32
2023-05-21T06:59:41.398Z,15.10
2023-05-21T07:02:07.921Z,14.50
2023-05-21T07:04:35.267Z,15.10
2023-05-21T07:07:04.836Z,15.85
2023-05-21T07:09:31.657Z,13.63
2023-05-21T07:11:58.525Z,13.63
2023-05-21T07:14:25.960Z,15.13
2023-05-21T07:16:52.802Z,12.80
2023-05-21T07:19:19.520Z,14.27
2023-05-21T07:21:46.397Z,11.38
2023-05-21T07:24:13.002Z,12.68
2023-05-21T07:29:06.880Z,12.20
2023-05-21T07:31:33.432Z,13.07
2023-05-21T07:34:00.677Z,13.10
2023-05-21T07:38:54.039Z,12.48
2023-05-21T07:43:48.773Z,12.27
2023-05-21T07:46:15.384Z,12.15
2023-05-21T07:48:43.552Z,13.43
2023-05-21T07:51:11.436Z,11.18
2023-05-21T07:53:38.160Z,11.32
2023-05-21T07:58:31.348Z,11.10
2023-05-21T08:00:58.412Z,12.82
2023-05-21T08:03:27.852Z,11.15
2023-05-21T08:05:54.608Z,11.23
2023-05-21T08:08:22.023Z,12.50
2023-05-21T08:10:49.123Z,11.10
2023-05-21T08:13:16.739Z,13.32
2023-05-21T08:15:43.334Z,11.65
2023-05-21T08:18:10.219Z,10.07
2023-05-21T08:20:37.023Z,11.68
2023-05-21T08:23:04.084Z,10.80
2023-05-21T08:25:30.595Z,11.88
2023-05-21T08:30:23.516Z,9.13
2023-05-21T08:32:50.780Z,12.43
2023-05-21T08:37:43.722Z,12.43
2023-05-21T08:40:12.193Z,11.20
2023-05-21T08:42:44.996Z,12.50
2023-05-21T08:45:16.714Z,10.65
2023-05-21T08:47:44.438Z,13.00
2023-05-21T08:50:14.028Z,12.10
2023-05-21T08:52:41.226Z,10.85
2023-05-21T08:55:09.122Z,11.63
2023-05-21T08:57:37.154Z,12.02
2023-05-21T09:00:07.135Z,13.32
2023-05-21T09:02:36.381Z,12.38
2023-05-21T09:05:04.448Z,14.13
2023-05-21T09:07:34.444Z,11.40
2023-05-21T09:10:10.517Z,13.02
2023-05-21T09:12:37.850Z,14.77
2023-05-21T09:15:05.282Z,12.65
2023-05-21T09:17:32.657Z,12.93
2023-05-21T09:20:16.418Z,12.45
2023-05-21T09:22:48.493Z,11.90
2023-05-21T09:25:17.671Z,12.75
2023-05-21T09:27:44.527Z,14.00
2023-05-21T09:30:17.151Z,12.57
2023-05-21T09:32:44.719Z,14.13
2023-05-21T09:35:13.273Z,14.30
2023-05-21T09:37:45.020Z,14.77
2023-05-21T09:40:22.671Z,14.20
2023-05-21T09:42:54.462Z,12.90
2023-05-21T09:45:22.317Z,15.77
2023-05-21T09:47:50.450Z,14.23
2023-05-21T09:50:31.374Z,13.63
2023-05-21T09:52:58.479Z,13.02
2023-05-21T09:55:26.527Z,14.07
2023-05-21T09:57:53.539Z,14.15
2023-05-21T10:00:22.760Z,12.68
2023-05-21T10:02:54.753Z,13.50
2023-05-21T10:05:26.497Z,12.27
2023-05-21T10:07:59.136Z,14.82
2023-05-21T10:10:28.486Z,12.10
2023-05-21T10:13:04.155Z,14.45
2023-05-21T10:15:35.002Z,12.75
2023-05-21T10:18:02.449Z,15.05
2023-05-21T10:20:29.219Z,13.20
2023-05-21T10:22:56.847Z,13.68
2023-05-21T10:25:25.236Z,12.35
2023-05-21T10:27:55.579Z,11.98
2023-05-21T10:30:23.263Z,12.40
2023-05-21T10:32:50.544Z,10.80
2023-05-21T10:35:17.352Z,13.63
2023-05-21T10:37:45.421Z,14.48
2023-05-21T10:40:13.191Z,13.23
2023-05-21T10:42:57.985Z,12.13
2023-05-21T10:46:07.485Z,12.30
2023-05-21T10:48:52.390Z,11.27
2023-05-21T10:51:22.168Z,14.00
2023-05-21T10:54:36.339Z,12.25
2023-05-21T10:57:33.139Z,12.50
2023-05-21T11:00:00.053Z,12.23
2023-05-21T11:02:28.202Z,14.90
2023-05-21T11:05:01.098Z,11.95
2023-05-21T11:07:58.950Z,11.48
2023-05-21T11:10:40.475Z,12.45
2023-05-21T11:13:14.937Z,11.43
2023-05-21T11:16:05.060Z,11.43
2023-05-21T11:18:37.763Z,12.52
2023-05-21T11:21:08.612Z,11.73
2023-05-21T11:23:53.842Z,11.43
2023-05-21T11:26:23.494Z,13.82
2023-05-21T11:28:51.342Z,10.88
2023-05-21T11:31:25.732Z,11.32
2023-05-21T11:34:10.944Z,11.77
2023-05-21T11:36:38.148Z,11.30
2023-05-21T11:39:17.572Z,10.90
2023-05-21T11:42:04.651Z,12.00
2023-05-21T11:44:49.376Z,10.27
2023-05-21T11:49:44.791Z,11.98
2023-05-21T11:52:12.720Z,11.80
2023-05-21T11:54:59.977Z,10.20
2023-05-21T11:57:31.061Z,11.00
2023-05-21T11:59:59.664Z,11.40
2023-05-21T12:02:28.568Z,12.55
2023-05-21T12:04:59.904Z,9.90
2023-05-21T12:07:31.637Z,10.65
2023-05-21T12:09:58.818Z,10.27
2023-05-21T12:12:30.794Z,12.27
2023-05-21T12:15:02.545Z,11.45
2023-05-21T12:17:31.427Z,10.32
2023-05-21T12:19:58.039Z,11.32
2023-05-21T12:22:25.461Z,12.27
2023-05-21T12:24:53.711Z,11.88
2023-05-21T12:27:21.779Z,11.13
2023-05-21T12:29:51.898Z,10.75
2023-05-21T12:32:21.650Z,10.98
2023-05-21T12:34:50.422Z,10.98
2023-05-21T12:37:35.665Z,10.63
2023-05-21T12:40:11.969Z,13.70
2023-05-21T12:42:40.329Z,11.77
2023-05-21T12:45:08.181Z,12.88
2023-05-21T12:47:35.890Z,11.48
2023-05-21T12:50:11.952Z,10.80
2023-05-21T12:52:40.947Z,11.90
2023-05-21T12:55:09.490Z,12.38
2023-05-21T12:57:39.200Z,10.85
2023-05-21T13:00:07.293Z,12.20
2023-05-21T13:02:39.599Z,10.55
2023-05-21T13:05:17.521Z,10.60
2023-05-21T13:07:46.718Z,10.65
2023-05-21T13:10:16.507Z,10.45
2023-05-21T13:12:44.697Z,11.32
2023-05-21T13:15:11.735Z,13.00
2023-05-21T13:17:38.367Z,12.13
2023-05-21T13:20:21.691Z,12.07
2023-05-21T13:22:50.969Z,11.43
2023-05-21T13:25:22.516Z,12.57
2023-05-21T13:27:51.234Z,11.18
2023-05-21T13:30:18.904Z,11.52
2023-05-21T13:32:46.285Z,10.63
2023-05-21T13:35:13.040Z,12.10
2023-05-21T13:37:40.541Z,12.15
2023-05-21T13:40:11.964Z,10.95
2023-05-21T13:42:38.903Z,11.05
2023-05-21T13:45:07.580Z,10.20
2023-05-21T13:47:37.587Z,11.00
2023-05-21T13:50:07.126Z,10.95
2023-05-21T13:52:34.626Z,13.05
2023-05-21T13:55:01.413Z,11.50
2023-05-21T13:57:30.649Z,10.40
2023-05-21T13:59:57.918Z,10.50
2023-05-21T14:02:24.813Z,11.55
2023-05-21T14:04:51.560Z,11.13
2023-05-21T14:07:18.074Z,11.73
2023-05-21T14:09:44.552Z,10.65
2023-05-21T14:12:11.784Z,11.15
2023-05-21T14:14:38.339Z,11.85
2023-05-21T14:17:06.352Z,11.02
2023-05-21T14:19:33.222Z,11.18
2023-05-21T14:21:59.888Z,12.15
2023-05-21T14:24:26.756Z,10.80
2023-05-21T14:26:53.567Z,11.45
2023-05-21T14:29:20.263Z,11.02
2023-05-21T14:31:47.050Z,10.63
2023-05-21T14:34:13.511Z,10.73
2023-05-21T14:36:40.102Z,12.40
2023-05-21T14:39:06.857Z,11.80
2023-05-21T14:41:33.459Z,10.57
2023-05-21T14:43:59.963Z,12.23
2023-05-21T14:46:26.584Z,11.13
2023-05-21T14:48:58.974Z,9.88
2023-05-21T14:51:25.790Z,11.50
2023-05-21T14:53:52.328Z,12.07
2023-05-21T14:56:21.608Z,10.80
2023-05-21T14:58:48.330Z,11.65
2023-05-21T15:01:14.839Z,11.23
2023-05-21T15:03:41.525Z,10.80
2023-05-21T15:06:08.252Z,11.45
2023-05-21T15:08:35.531Z,10.63
2023-05-21T15:11:02.416Z,14.05
2023-05-21T15:13:29.398Z,12.40
2023-05-21T15:15:56.410Z,13.38
2023-05-21T15:18:24.644Z,10.35
2023-05-21T15:20:51.462Z,10.98
2023-05-21T15:23:18.123Z,21.48
2023-05-21T15:25:45.722Z,10.70
2023-05-21T15:28:12.763Z,10.35
2023-05-21T15:30:39.888Z,14.73
2023-05-21T15:33:06.442Z,14.13
2023-05-21T15:35:33.376Z,13.93
2023-05-21T15:38:00.214Z,12.80
2023-05-21T15:40:27.455Z,12.00
2023-05-21T15:42:54.464Z,11.25
2023-05-21T15:45:20.972Z,13.63
2023-05-21T15:47:47.664Z,11.20
2023-05-21T15:50:14.315Z,13.40
2023-05-21T15:52:42.040Z,10.80
2023-05-21T15:55:09.313Z,11.10
2023-05-21T15:57:36.227Z,10.75
2023-05-21T16:00:03.891Z,11.63
2023-05-21T16:02:30.650Z,11.82
2023-05-21T16:04:57.582Z,11.98
2023-05-21T16:07:24.505Z,12.05
2023-05-21T16:09:51.239Z,10.70
2023-05-21T16:12:18.236Z,11.07
2023-05-21T16:14:45.581Z,11.95
2023-05-21T16:17:12.112Z,11.50
2023-05-21T16:19:38.876Z,11.77
2023-05-21T16:22:05.805Z,13.30
2023-05-21T16:24:32.380Z,11.75
2023-05-21T16:26:58.862Z,12.18
2023-05-21T16:29:25.495Z,11.52
2023-05-21T16:31:52.261Z,11.05
2023-05-21T16:34:19.027Z,11.50
2023-05-21T16:36:45.494Z,12.05
2023-05-21T16:41:38.628Z,13.27
2023-05-21T16:44:05.246Z,11.93
2023-05-21T16:46:31.921Z,12.35
2023-05-21T16:48:58.490Z,13.18
2023-05-21T16:51:25.096Z,11.98
2023-05-21T16:53:51.709Z,12.73
2023-05-21T16:56:18.356Z,13.57
2023-05-21T16:58:46.614Z,14.43
2023-05-21T17:01:13.332Z,13.27
2023-05-21T17:03:42.511Z,12.15
2023-05-21T17:06:10.068Z,13.23
2023-05-21T17:08:36.912Z,12.38
2023-05-21T17:11:03.597Z,13.45
2023-05-21T17:13:30.762Z,12.95
2023-05-21T17:15:57.319Z,11.15
2023-05-21T17:18:23.758Z,10.77
2023-05-21T17:20:50.408Z,9.02
2023-05-21T17:23:17.243Z,8.73
2023-05-21T17:25:44.205Z,7.95
2023-05-21T17:28:11.143Z,6.38
2023-05-21T17:30:37.916Z,7.15
2023-05-21T17:33:06.326Z,7.55
2023-05-21T17:35:34.292Z,7.47
2023-05-21T17:38:00.865Z,7.05
2023-05-21T17:42:53.630Z,7.22
2023-05-21T17:45:20.326Z,7.97
2023-05-21T17:47:47.214Z,7.32
2023-05-21T17:50:13.719Z,8.13
2023-05-21T17:52:40.513Z,8.57
2023-05-21T17:55:07.886Z,8.77
2023-05-21T17:57:37.949Z,8.82
2023-05-21T18:00:06.647Z,8.68
2023-05-21T18:02:33.404Z,8.82
2023-05-21T18:05:00.043Z,8.80
2023-05-21T18:07:26.895Z,8.70
2023-05-21T18:09:53.410Z,9.73
2023-05-21T18:12:20.075Z,8.35
2023-05-21T18:14:46.641Z,9.35
2023-05-21T18:19:39.679Z,9.57
2023-05-21T18:22:06.442Z,9.18
2023-05-21T18:24:32.947Z,7.85
2023-05-21T18:29:25.986Z,10.15
2023-05-21T18:31:52.705Z,8.25
2023-05-21T18:34:19.223Z,10.43
2023-05-21T18:39:12.595Z,10.32
2023-05-21T18:41:39.322Z,10.85
2023-05-21T18:44:06.249Z,8.57
2023-05-21T18:46:33.169Z,10.73
2023-05-21T18:49:00.399Z,10.40
2023-05-21T18:51:27.498Z,10.15
2023-05-21T18:53:54.177Z,9.88
2023-05-21T18:58:48.527Z,8.57
2023-05-21T19:01:16.080Z,9.65
2023-05-21T19:03:42.881Z,9.95
2023-05-21T19:06:09.516Z,11.20
2023-05-21T19:08:36.291Z,10.63
2023-05-21T19:11:03.259Z,9.00
2023-05-21T19:13:30.053Z,9.85
2023-05-21T19:15:58.236Z,8.85
2023-05-21T19:18:30.312Z,9.43
2023-05-21T19:20:57.545Z,9.75
2023-05-21T19:23:24.767Z,11.07
2023-05-21T19:25:51.454Z,9.65
2023-05-21T19:28:18.922Z,10.05
2023-05-21T19:30:46.144Z,9.40
2023-05-21T19:33:12.718Z,9.52
2023-05-21T19:35:39.400Z,9.77
2023-05-21T19:38:06.705Z,9.55
2023-05-21T19:40:33.401Z,11.30
2023-05-21T19:42:59.917Z,9.77
2023-05-21T19:45:26.998Z,9.05
2023-05-21T19:47:53.816Z,9.20
2023-05-21T19:50:20.533Z,10.27
2023-05-21T19:52:47.163Z,9.60
2023-05-21T19:57:40.608Z,10.95
2023-05-21T20:00:10.198Z,10.52
2023-05-21T20:02:37.105Z,13.07
2023-05-21T20:05:03.813Z,10.77
2023-05-21T20:07:30.361Z,10.73
2023-05-21T20:09:56.754Z,12.48
2023-05-21T20:14:50.050Z,11.50
2023-05-21T20:17:18.827Z,9.95
2023-05-21T20:19:47.989Z,11.23
2023-05-21T20:22:17.950Z,11.75
2023-05-21T20:24:44.404Z,11.25
2023-05-21T20:27:10.952Z,11.60
2023-05-21T20:29:37.487Z,11.00
2023-05-21T20:32:04.100Z,13.68
2023-05-21T20:36:58.214Z,12.27
2023-05-21T20:39:27.203Z,12.98
2023-05-21T20:41:54.977Z,10.82
2023-05-21T20:44:22.367Z,13.40
2023-05-21T20:46:48.994Z,13.55
2023-05-21T20:49:15.680Z,12.43
2023-05-21T20:54:10.873Z,12.75
2023-05-21T20:56:42.597Z,12.85
2023-05-21T20:59:11.125Z,12.63
2023-05-21T21:01:39.112Z,12.45
2023-05-21T21:04:06.045Z,13.88
2023-05-21T21:08:59.491Z,14.55
2023-05-21T21:11:27.067Z,14.57
2023-05-21T21:13:53.525Z,13.23
2023-05-21T21:18:47.269Z,13.60
2023-05-21T21:21:13.941Z,14.20
2023-05-21T21:23:40.588Z,13.80
2023-05-21T21:26:07.273Z,14.55
2023-05-21T21:31:00.714Z,16.92
2023-05-21T21:33:28.195Z,16.25
2023-05-21T21:35:54.839Z,18.45
2023-05-21T21:38:21.451Z,15.00
2023-05-21T21:40:48.050Z,18.20
2023-05-21T21:43:14.578Z,14.80
2023-05-21T21:48:07.960Z,16.77
2023-05-21T21:50:34.572Z,17.52
2023-05-21T21:53:01.195Z,17.02
2023-05-21T21:57:56.606Z,17.10
2023-05-21T22:00:26.498Z,16.63
2023-05-21T22:02:53.859Z,16.52
2023-05-21T22:05:20.814Z,17.58
2023-05-21T22:07:47.640Z,16.13
2023-05-21T22:10:15.320Z,16.58
2023-05-21T22:12:43.095Z,17.33
2023-05-21T22:15:18.357Z,18.95
2023-05-21T22:17:47.511Z,18.90
2023-05-21T22:20:14.739Z,21.17
2023-05-21T22:22:41.755Z,16.73
2023-05-21T22:25:08.449Z,18.35
2023-05-21T22:27:35.327Z,19.20
2023-05-21T22:30:02.446Z,17.02
2023-05-21T22:32:29.221Z,18.58
2023-05-21T22:34:55.747Z,19.30
2023-05-21T22:37:23.550Z,18.42
2023-05-21T22:39:50.187Z,17.55
2023-05-21T22:42:16.794Z,16.00
2023-05-21T22:44:43.431Z,16.58
2023-05-21T22:49:38.041Z,19.50
2023-05-21T22:52:06.132Z,17.70
2023-05-21T22:54:32.846Z,16.20
2023-05-21T22:57:01.051Z,19.65
2023-05-21T22:59:32.295Z,18.20
2023-05-21T23:01:59.270Z,18.52
2023-05-21T23:04:42.663Z,17.02
2023-05-21T23:07:10.358Z,17.80
2023-05-21T23:12:03.967Z,18.55
2023-05-21T23:14:30.736Z,17.65
2023-05-21T23:19:29.345Z,18.10
2023-05-21T23:21:56.208Z,16.73
2023-05-21T23:26:49.434Z,21.25
2023-05-21T23:29:15.940Z,20.23
2023-05-21T23:31:43.480Z,17.50
2023-05-21T23:34:10.667Z,20.35
2023-05-21T23:36:37.445Z,20.40
2023-05-21T23:41:30.573Z,14.82
2023-05-21T23:46:23.695Z,20.05
2023-05-21T23:48:50.573Z,19.33
2023-05-21T23:51:19.109Z,17.08
2023-05-21T23:53:45.745Z,18.98
2023-05-21T23:58:38.804Z,15.68
